sensor_id;sensor_type;location;lat;lon;timestamp;temperature;humidity
5647;DHT22;2845;48.626;9.362;2023-04-25T00:01:04;8.50;99.90
5647;DHT22;2845;48.626;9.362;2023-04-25T00:03:39;9.80;99.90
5647;DHT22;2845;48.626;9.362;2023-04-25T00:06:16;8.50;99.90
5647;DHT22;2845;48.626;9.362;2023-04-25T00:08:51;8.50;99.90
5647;DHT22;2845;48.626;9.362;2023-04-25T00:11:26;8.40;99.90
5647;DHT22;2845;48.626;9.362;2023-04-25T00:14:04;8.40;99.90
5647;DHT22;2845;48.626;9.362;2023-04-25T00:16:39;8.30;99.90
5647;DHT22;2845;48.626;9.362;2023-04-25T00:19:14;8.20;99.90
5647;DHT22;2845;48.626;9.362;2023-04-25T00:21:48;10.30;99.90
5647;DHT22;2845;48.626;9.362;2023-04-25T00:24:22;8.30;99.90
5647;DHT22;2845;48.626;9.362;2023-04-25T00:26:56;8.30;99.90
5647;DHT22;2845;48.626;9.362;2023-04-25T00:29:32;8.20;99.90
5647;DHT22;2845;48.626;9.362;2023-04-25T00:32:06;8.20;99.90
5647;DHT22;2845;48.626;9.362;2023-04-25T00:34:40;8.10;99.90
5647;DHT22;2845;48.626;9.362;2023-04-25T00:37:14;8.20;99.90
5647;DHT22;2845;48.626;9.362;2023-04-25T00:39:49;8.20;99.90
5647;DHT22;2845;48.626;9.362;2023-04-25T00:42:23;8.30;99.90
5647;DHT22;2845;48.626;9.362;2023-04-25T00:45:00;8.40;99.90
5647;DHT22;2845;48.626;9.362;2023-04-25T00:47:36;8.40;99.90
5647;DHT22;2845;48.626;9.362;2023-04-25T00:50:10;8.40;99.90
5647;DHT22;2845;48.626;9.362;2023-04-25T00:52:45;8.40;99.90
5647;DHT22;2845;48.626;9.362;2023-04-25T00:55:20;8.50;99.90
5647;DHT22;2845;48.626;9.362;2023-04-25T00:57:54;12.20;99.90
5647;DHT22;2845;48.626;9.362;2023-04-25T01:00:30;8.50;99.90
5647;DHT22;2845;48.626;9.362;2023-04-25T01:03:04;8.50;99.90
5647;DHT22;2845;48.626;9.362;2023-04-25T01:05:39;8.60;99.90
5647;DHT22;2845;48.626;9.362;2023-04-25T01:08:14;8.60;99.90
5647;DHT22;2845;48.626;9.362;2023-04-25T01:10:49;8.60;99.90
5647;DHT22;2845;48.626;9.362;2023-04-25T01:13:23;8.60;99.90
5647;DHT22;2845;48.626;9.362;2023-04-25T01:15:59;8.60;99.90
5647;DHT22;2845;48.626;9.362;2023-04-25T01:18:33;8.70;99.90
5647;DHT22;2845;48.626;9.362;2023-04-25T01:21:10;7.70;99.90
5647;DHT22;2845;48.626;9.362;2023-04-25T01:23:46;8.70;99.90
5647;DHT22;2845;48.626;9.362;2023-04-25T01:26:21;11.10;99.90
5647;DHT22;2845;48.626;9.362;2023-04-25T01:28:56;8.60;99.90
5647;DHT22;2845;48.626;9.362;2023-04-25T01:31:32;8.80;99.90
5647;DHT22;2845;48.626;9.362;2023-04-25T01:34:07;10.60;99.90
5647;DHT22;2845;48.626;9.362;2023-04-25T01:36:43;8.70;99.90
5647;DHT22;2845;48.626;9.362;2023-04-25T01:39:17;8.70;99.90
5647;DHT22;2845;48.626;9.362;2023-04-25T01:41:52;9.40;99.90
5647;DHT22;2845;48.626;9.362;2023-04-25T01:47:03;8.60;99.90
5647;DHT22;2845;48.626;9.362;2023-04-25T01:52:13;8.70;99.90
5647;DHT22;2845;48.626;9.362;2023-04-25T01:54:48;8.60;99.90
5647;DHT22;2845;48.626;9.362;2023-04-25T01:57:23;8.60;99.90
5647;DHT22;2845;48.626;9.362;2023-04-25T01:59:59;8.50;99.90
5647;DHT22;2845;48.626;9.362;2023-04-25T02:02:35;10.70;99.90
5647;DHT22;2845;48.626;9.362;2023-04-25T02:05:10;10.50;99.90
5647;DHT22;2845;48.626;9.362;2023-04-25T02:07:45;10.10;99.90
5647;DHT22;2845;48.626;9.362;2023-04-25T02:10:20;8.50;99.90
5647;DHT22;2845;48.626;9.362;2023-04-25T02:12:54;8.50;99.90
5647;DHT22;2845;48.626;9.362;2023-04-25T02:15:28;8.60;99.90
5647;DHT22;2845;48.626;9.362;2023-04-25T02:18:03;8.50;99.90
5647;DHT22;2845;48.626;9.362;2023-04-25T02:20:39;8.40;99.90
5647;DHT22;2845;48.626;9.362;2023-04-25T02:23:14;8.80;99.90
5647;DHT22;2845;48.626;9.362;2023-04-25T02:25:49;8.30;99.90
5647;DHT22;2845;48.626;9.362;2023-04-25T02:28:23;8.40;99.90
5647;DHT22;2845;48.626;9.362;2023-04-25T02:30:57;8.50;99.90
5647;DHT22;2845;48.626;9.362;2023-04-25T02:33:32;8.40;99.90
5647;DHT22;2845;48.626;9.362;2023-04-25T02:36:06;11.10;99.90
5647;DHT22;2845;48.626;9.362;2023-04-25T02:38:42;8.40;99.90
5647;DHT22;2845;48.626;9.362;2023-04-25T02:41:16;9.80;99.90
5647;DHT22;2845;48.626;9.362;2023-04-25T02:43:51;8.40;99.90
5647;DHT22;2845;48.626;9.362;2023-04-25T02:46:25;9.20;99.90
5647;DHT22;2845;48.626;9.362;2023-04-25T02:49:11;8.20;99.90
5647;DHT22;2845;48.626;9.362;2023-04-25T02:51:45;8.10;99.90
5647;DHT22;2845;48.626;9.362;2023-04-25T02:54:20;8.10;99.90
5647;DHT22;2845;48.626;9.362;2023-04-25T02:56:54;8.00;99.90
5647;DHT22;2845;48.626;9.362;2023-04-25T02:59:29;4.90;99.90
5647;DHT22;2845;48.626;9.362;2023-04-25T03:02:03;10.40;99.90
5647;DHT22;2845;48.626;9.362;2023-04-25T03:04:37;8.00;99.90
5647;DHT22;2845;48.626;9.362;2023-04-25T03:07:11;8.30;99.90
5647;DHT22;2845;48.626;9.362;2023-04-25T03:09:47;8.10;99.90
5647;DHT22;2845;48.626;9.362;2023-04-25T03:12:21;8.10;99.90
5647;DHT22;2845;48.626;9.362;2023-04-25T03:14:55;8.00;99.90
5647;DHT22;2845;48.626;9.362;2023-04-25T03:17:29;8.00;99.90
5647;DHT22;2845;48.626;9.362;2023-04-25T03:20:04;8.00;99.90
5647;DHT22;2845;48.626;9.362;2023-04-25T03:22:41;7.90;99.90
5647;DHT22;2845;48.626;9.362;2023-04-25T03:25:16;11.40;99.90
5647;DHT22;2845;48.626;9.362;2023-04-25T03:27:51;7.80;99.90
5647;DHT22;2845;48.626;9.362;2023-04-25T03:30:25;8.80;99.90
5647;DHT22;2845;48.626;9.362;2023-04-25T03:32:59;7.70;99.90
5647;DHT22;2845;48.626;9.362;2023-04-25T03:35:33;7.70;99.90
5647;DHT22;2845;48.626;9.362;2023-04-25T03:38:07;7.70;99.90
5647;DHT22;2845;48.626;9.362;2023-04-25T03:40:43;7.70;99.90
5647;DHT22;2845;48.626;9.362;2023-04-25T03:43:17;7.70;99.90
5647;DHT22;2845;48.626;9.362;2023-04-25T03:45:51;7.80;99.90
5647;DHT22;2845;48.626;9.362;2023-04-25T03:48:25;7.80;99.90
5647;DHT22;2845;48.626;9.362;2023-04-25T03:51:00;7.90;99.90
5647;DHT22;2845;48.626;9.362;2023-04-25T03:53:34;7.90;99.90
5647;DHT22;2845;48.626;9.362;2023-04-25T03:56:09;10.20;99.90
5647;DHT22;2845;48.626;9.362;2023-04-25T03:58:44;7.90;99.90
5647;DHT22;2845;48.626;9.362;2023-04-25T04:01:18;7.80;99.90
5647;DHT22;2845;48.626;9.362;2023-04-25T04:03:52;7.80;99.90
5647;DHT22;2845;48.626;9.362;2023-04-25T04:06:27;7.80;99.90
5647;DHT22;2845;48.626;9.362;2023-04-25T04:09:01;7.80;99.90
5647;DHT22;2845;48.626;9.362;2023-04-25T04:11:37;7.70;99.90
5647;DHT22;2845;48.626;9.362;2023-04-25T04:14:12;7.70;99.90
5647;DHT22;2845;48.626;9.362;2023-04-25T04:16:46;9.40;99.90
5647;DHT22;2845;48.626;9.362;2023-04-25T04:19:20;7.80;99.90
5647;DHT22;2845;48.626;9.362;2023-04-25T04:21:54;8.50;99.90
5647;DHT22;2845;48.626;9.362;2023-04-25T04:24:28;7.90;99.90
5647;DHT22;2845;48.626;9.362;2023-04-25T04:27:04;11.50;99.90
5647;DHT22;2845;48.626;9.362;2023-04-25T04:29:38;7.90;99.90
5647;DHT22;2845;48.626;9.362;2023-04-25T04:32:14;8.10;99.90
5647;DHT22;2845;48.626;9.362;2023-04-25T04:34:48;11.60;99.90
5647;DHT22;2845;48.626;9.362;2023-04-25T04:37:22;8.20;99.90
5647;DHT22;2845;48.626;9.362;2023-04-25T04:39:56;8.20;99.90
5647;DHT22;2845;48.626;9.362;2023-04-25T04:42:32;8.20;99.90
5647;DHT22;2845;48.626;9.362;2023-04-25T04:45:07;9.40;99.90
5647;DHT22;2845;48.626;9.362;2023-04-25T04:47:42;8.20;99.90
5647;DHT22;2845;48.626;9.362;2023-04-25T04:50:17;10.70;99.90
5647;DHT22;2845;48.626;9.362;2023-04-25T04:52:51;8.30;99.90
5647;DHT22;2845;48.626;9.362;2023-04-25T04:55:27;8.30;99.90
5647;DHT22;2845;48.626;9.362;2023-04-25T05:00:37;8.30;99.90
5647;DHT22;2845;48.626;9.362;2023-04-25T05:03:11;8.30;99.90
5647;DHT22;2845;48.626;9.362;2023-04-25T05:05:46;8.40;99.90
5647;DHT22;2845;48.626;9.362;2023-04-25T05:08:20;10.40;99.90
5647;DHT22;2845;48.626;9.362;2023-04-25T05:10:54;8.60;99.90
5647;DHT22;2845;48.626;9.362;2023-04-25T05:13:30;8.70;99.90
5647;DHT22;2845;48.626;9.362;2023-04-25T05:16:04;8.80;99.90
5647;DHT22;2845;48.626;9.362;2023-04-25T05:18:39;8.80;99.90
5647;DHT22;2845;48.626;9.362;2023-04-25T05:21:13;8.90;99.90
5647;DHT22;2845;48.626;9.362;2023-04-25T05:23:47;12.10;99.90
5647;DHT22;2845;48.626;9.362;2023-04-25T05:26:22;8.90;99.90
5647;DHT22;2845;48.626;9.362;2023-04-25T05:28:58;9.00;99.90
5647;DHT22;2845;48.626;9.362;2023-04-25T05:31:32;9.00;99.90
5647;DHT22;2845;48.626;9.362;2023-04-25T05:34:07;8.90;99.90
5647;DHT22;2845;48.626;9.362;2023-04-25T05:36:42;9.10;99.90
5647;DHT22;2845;48.626;9.362;2023-04-25T05:39:16;10.70;99.90
5647;DHT22;2845;48.626;9.362;2023-04-25T05:41:51;9.20;99.90
5647;DHT22;2845;48.626;9.362;2023-04-25T05:44:26;13.40;99.90
5647;DHT22;2845;48.626;9.362;2023-04-25T05:47:01;9.20;99.90
5647;DHT22;2845;48.626;9.362;2023-04-25T05:49:37;9.30;99.90
5647;DHT22;2845;48.626;9.362;2023-04-25T05:52:11;9.20;99.90
5647;DHT22;2845;48.626;9.362;2023-04-25T05:54:45;9.20;99.90
5647;DHT22;2845;48.626;9.362;2023-04-25T05:57:20;9.10;99.90
5647;DHT22;2845;48.626;9.362;2023-04-25T05:59:57;11.20;99.90
5647;DHT22;2845;48.626;9.362;2023-04-25T06:02:31;11.30;99.90
5647;DHT22;2845;48.626;9.362;2023-04-25T06:05:06;10.20;99.90
5647;DHT22;2845;48.626;9.362;2023-04-25T06:07:41;9.00;99.90
5647;DHT22;2845;48.626;9.362;2023-04-25T06:10:16;9.00;99.90
5647;DHT22;2845;48.626;9.362;2023-04-25T06:12:51;9.10;99.90
5647;DHT22;2845;48.626;9.362;2023-04-25T06:15:26;9.20;99.90
5647;DHT22;2845;48.626;9.362;2023-04-25T06:18:00;9.30;99.90
5647;DHT22;2845;48.626;9.362;2023-04-25T06:20:35;9.40;99.90
5647;DHT22;2845;48.626;9.362;2023-04-25T06:23:09;9.60;99.90
5647;DHT22;2845;48.626;9.362;2023-04-25T06:25:43;10.00;99.90
5647;DHT22;2845;48.626;9.362;2023-04-25T06:28:17;10.30;99.90
5647;DHT22;2845;48.626;9.362;2023-04-25T06:30:55;10.60;99.90
5647;DHT22;2845;48.626;9.362;2023-04-25T06:33:30;10.70;99.90
5647;DHT22;2845;48.626;9.362;2023-04-25T06:36:04;10.80;99.90
5647;DHT22;2845;48.626;9.362;2023-04-25T06:38:39;11.00;99.80
5647;DHT22;2845;48.626;9.362;2023-04-25T06:41:13;12.60;99.90
5647;DHT22;2845;48.626;9.362;2023-04-25T06:43:47;11.20;99.30
5647;DHT22;2845;48.626;9.362;2023-04-25T06:46:22;11.90;99.10
5647;DHT22;2845;48.626;9.362;2023-04-25T06:48:56;11.10;98.80
5647;DHT22;2845;48.626;9.362;2023-04-25T06:51:30;10.90;99.00
5647;DHT22;2845;48.626;9.362;2023-04-25T06:54:05;10.80;99.10
5647;DHT22;2845;48.626;9.362;2023-04-25T06:56:39;10.60;99.30
5647;DHT22;2845;48.626;9.362;2023-04-25T06:59:14;10.50;99.40
5647;DHT22;2845;48.626;9.362;2023-04-25T07:01:49;10.40;99.70
5647;DHT22;2845;48.626;9.362;2023-04-25T07:04:23;10.30;99.90
5647;DHT22;2845;48.626;9.362;2023-04-25T07:06:58;10.30;99.90
5647;DHT22;2845;48.626;9.362;2023-04-25T07:09:33;11.30;99.90
5647;DHT22;2845;48.626;9.362;2023-04-25T07:12:08;12.80;99.90
5647;DHT22;2845;48.626;9.362;2023-04-25T07:14:42;10.00;99.90
5647;DHT22;2845;48.626;9.362;2023-04-25T07:17:17;9.90;99.90
5647;DHT22;2845;48.626;9.362;2023-04-25T07:19:51;9.90;99.90
5647;DHT22;2845;48.626;9.362;2023-04-25T07:22:25;9.80;99.90
5647;DHT22;2845;48.626;9.362;2023-04-25T07:25:00;9.80;99.90
5647;DHT22;2845;48.626;9.362;2023-04-25T07:27:34;9.80;99.90
5647;DHT22;2845;48.626;9.362;2023-04-25T07:30:09;9.70;99.90
5647;DHT22;2845;48.626;9.362;2023-04-25T07:32:45;9.70;99.90
5647;DHT22;2845;48.626;9.362;2023-04-25T07:35:19;9.70;99.90
5647;DHT22;2845;48.626;9.362;2023-04-25T07:37:53;9.60;99.90
5647;DHT22;2845;48.626;9.362;2023-04-25T07:40:27;9.50;99.90
5647;DHT22;2845;48.626;9.362;2023-04-25T07:43:01;9.50;99.90
5647;DHT22;2845;48.626;9.362;2023-04-25T07:45:36;9.50;99.90
5647;DHT22;2845;48.626;9.362;2023-04-25T07:48:11;9.50;99.90
5647;DHT22;2845;48.626;9.362;2023-04-25T07:50:47;9.70;99.90
5647;DHT22;2845;48.626;9.362;2023-04-25T07:53:21;11.70;99.90
5647;DHT22;2845;48.626;9.362;2023-04-25T07:55:56;12.30;99.90
5647;DHT22;2845;48.626;9.362;2023-04-25T07:58:30;9.60;99.90
5647;DHT22;2845;48.626;9.362;2023-04-25T08:01:04;9.60;99.90
5647;DHT22;2845;48.626;9.362;2023-04-25T08:03:40;12.50;99.90
5647;DHT22;2845;48.626;9.362;2023-04-25T08:06:14;12.60;99.90
5647;DHT22;2845;48.626;9.362;2023-04-25T08:08:49;9.60;99.90
5647;DHT22;2845;48.626;9.362;2023-04-25T08:11:23;11.00;99.90
5647;DHT22;2845;48.626;9.362;2023-04-25T08:13:57;9.40;99.90
5647;DHT22;2845;48.626;9.362;2023-04-25T08:16:31;9.40;99.90
5647;DHT22;2845;48.626;9.362;2023-04-25T08:19:07;9.30;99.90
5647;DHT22;2845;48.626;9.362;2023-04-25T08:21:41;9.20;99.90
5647;DHT22;2845;48.626;9.362;2023-04-25T08:24:16;9.10;99.90
5647;DHT22;2845;48.626;9.362;2023-04-25T08:26:50;8.90;99.90
5647;DHT22;2845;48.626;9.362;2023-04-25T08:29:25;8.90;99.90
5647;DHT22;2845;48.626;9.362;2023-04-25T08:32:01;8.70;99.90
5647;DHT22;2845;48.626;9.362;2023-04-25T08:34:36;10.40;99.90
5647;DHT22;2845;48.626;9.362;2023-04-25T08:37:12;8.60;99.90
5647;DHT22;2845;48.626;9.362;2023-04-25T08:39:46;8.60;99.90
5647;DHT22;2845;48.626;9.362;2023-04-25T08:42:21;8.60;99.90
5647;DHT22;2845;48.626;9.362;2023-04-25T08:44:57;8.60;99.90
5647;DHT22;2845;48.626;9.362;2023-04-25T08:47:34;8.70;99.90
5647;DHT22;2845;48.626;9.362;2023-04-25T08:50:10;10.40;99.90
5647;DHT22;2845;48.626;9.362;2023-04-25T08:52:45;8.60;99.90
5647;DHT22;2845;48.626;9.362;2023-04-25T08:55:21;8.60;99.90
5647;DHT22;2845;48.626;9.362;2023-04-25T08:57:56;8.60;99.90
5647;DHT22;2845;48.626;9.362;2023-04-25T09:00:31;8.70;99.90
5647;DHT22;2845;48.626;9.362;2023-04-25T09:03:06;8.70;99.90
5647;DHT22;2845;48.626;9.362;2023-04-25T09:05:45;8.80;99.90
5647;DHT22;2845;48.626;9.362;2023-04-25T09:08:19;8.90;99.90
5647;DHT22;2845;48.626;9.362;2023-04-25T09:10:53;8.90;99.90
5647;DHT22;2845;48.626;9.362;2023-04-25T09:13:28;9.00;99.90
5647;DHT22;2845;48.626;9.362;2023-04-25T09:16:03;8.90;99.90
5647;DHT22;2845;48.626;9.362;2023-04-25T09:18:40;8.90;99.90
5647;DHT22;2845;48.626;9.362;2023-04-25T09:21:22;8.90;99.90
5647;DHT22;2845;48.626;9.362;2023-04-25T09:23:56;9.00;99.90
5647;DHT22;2845;48.626;9.362;2023-04-25T09:26:32;9.10;99.90
5647;DHT22;2845;48.626;9.362;2023-04-25T09:29:06;9.10;99.90
5647;DHT22;2845;48.626;9.362;2023-04-25T09:31:41;9.10;99.90
5647;DHT22;2845;48.626;9.362;2023-04-25T09:34:15;9.10;99.90
5647;DHT22;2845;48.626;9.362;2023-04-25T09:36:54;9.20;99.90
5647;DHT22;2845;48.626;9.362;2023-04-25T09:39:28;9.10;99.90
5647;DHT22;2845;48.626;9.362;2023-04-25T09:42:03;9.30;99.90
5647;DHT22;2845;48.626;9.362;2023-04-25T09:44:42;9.30;99.90
5647;DHT22;2845;48.626;9.362;2023-04-25T09:47:17;9.30;99.90
5647;DHT22;2845;48.626;9.362;2023-04-25T09:49:54;9.30;99.90
5647;DHT22;2845;48.626;9.362;2023-04-25T09:52:30;9.20;99.90
5647;DHT22;2845;48.626;9.362;2023-04-25T09:55:05;9.30;99.90
5647;DHT22;2845;48.626;9.362;2023-04-25T09:57:40;9.30;99.90
5647;DHT22;2845;48.626;9.362;2023-04-25T10:00:15;9.30;99.90
5647;DHT22;2845;48.626;9.362;2023-04-25T10:02:51;9.30;99.90
5647;DHT22;2845;48.626;9.362;2023-04-25T10:05:28;9.30;99.90
5647;DHT22;2845;48.626;9.362;2023-04-25T10:08:06;9.50;99.90
5647;DHT22;2845;48.626;9.362;2023-04-25T10:10:41;12.80;99.90
5647;DHT22;2845;48.626;9.362;2023-04-25T10:13:15;10.20;99.90
5647;DHT22;2845;48.626;9.362;2023-04-25T10:15:51;9.60;99.90
5647;DHT22;2845;48.626;9.362;2023-04-25T10:18:26;9.60;99.90
5647;DHT22;2845;48.626;9.362;2023-04-25T10:21:04;9.70;99.90
5647;DHT22;2845;48.626;9.362;2023-04-25T10:26:15;9.60;99.90
5647;DHT22;2845;48.626;9.362;2023-04-25T10:28:56;9.50;99.90
5647;DHT22;2845;48.626;9.362;2023-04-25T10:31:32;9.50;99.90
5647;DHT22;2845;48.626;9.362;2023-04-25T10:34:07;13.70;99.90
5647;DHT22;2845;48.626;9.362;2023-04-25T10:36:42;9.40;99.90
5647;DHT22;2845;48.626;9.362;2023-04-25T10:39:23;9.50;99.90
5647;DHT22;2845;48.626;9.362;2023-04-25T10:41:59;9.40;99.90
5647;DHT22;2845;48.626;9.362;2023-04-25T10:44:37;9.40;99.90
5647;DHT22;2845;48.626;9.362;2023-04-25T10:47:12;9.70;99.90
5647;DHT22;2845;48.626;9.362;2023-04-25T10:49:50;9.40;99.90
5647;DHT22;2845;48.626;9.362;2023-04-25T10:52:25;7.50;99.90
5647;DHT22;2845;48.626;9.362;2023-04-25T10:55:03;9.10;99.90
5647;DHT22;2845;48.626;9.362;2023-04-25T10:57:40;9.10;99.90
5647;DHT22;2845;48.626;9.362;2023-04-25T11:00:17;12.30;99.90
5647;DHT22;2845;48.626;9.362;2023-04-25T11:03:02;8.80;99.90
5647;DHT22;2845;48.626;9.362;2023-04-25T11:05:38;8.80;99.90
5647;DHT22;2845;48.626;9.362;2023-04-25T11:08:37;11.30;99.90
5647;DHT22;2845;48.626;9.362;2023-04-25T11:13:55;8.70;99.90
5647;DHT22;2845;48.626;9.362;2023-04-25T11:16:29;8.50;99.90
5647;DHT22;2845;48.626;9.362;2023-04-25T11:19:04;12.70;99.90
5647;DHT22;2845;48.626;9.362;2023-04-25T11:21:38;8.50;99.90
5647;DHT22;2845;48.626;9.362;2023-04-25T11:24:12;8.60;99.90
5647;DHT22;2845;48.626;9.362;2023-04-25T11:26:48;8.70;99.90
5647;DHT22;2845;48.626;9.362;2023-04-25T11:29:22;12.00;99.90
5647;DHT22;2845;48.626;9.362;2023-04-25T11:31:57;8.70;99.90
5647;DHT22;2845;48.626;9.362;2023-04-25T11:34:33;8.70;99.90
5647;DHT22;2845;48.626;9.362;2023-04-25T11:37:08;8.60;99.90
5647;DHT22;2845;48.626;9.362;2023-04-25T11:42:21;8.50;99.90
5647;DHT22;2845;48.626;9.362;2023-04-25T11:44:55;5.30;99.90
5647;DHT22;2845;48.626;9.362;2023-04-25T11:47:30;8.60;99.90
5647;DHT22;2845;48.626;9.362;2023-04-25T11:50:06;8.50;99.90
5647;DHT22;2845;48.626;9.362;2023-04-25T11:52:42;8.50;99.90
5647;DHT22;2845;48.626;9.362;2023-04-25T11:55:19;8.50;99.90
5647;DHT22;2845;48.626;9.362;2023-04-25T11:57:55;8.50;99.90
5647;DHT22;2845;48.626;9.362;2023-04-25T12:00:33;12.50;99.90
5647;DHT22;2845;48.626;9.362;2023-04-25T12:03:09;8.50;99.90
5647;DHT22;2845;48.626;9.362;2023-04-25T12:05:44;8.40;99.90
5647;DHT22;2845;48.626;9.362;2023-04-25T12:08:19;12.00;99.90
5647;DHT22;2845;48.626;9.362;2023-04-25T12:10:54;8.40;99.90
5647;DHT22;2845;48.626;9.362;2023-04-25T12:13:31;8.40;99.90
5647;DHT22;2845;48.626;9.362;2023-04-25T12:16:06;8.40;99.90
5647;DHT22;2845;48.626;9.362;2023-04-25T12:18:40;8.50;99.90
5647;DHT22;2845;48.626;9.362;2023-04-25T12:21:14;8.70;99.90
5647;DHT22;2845;48.626;9.362;2023-04-25T12:23:48;8.60;99.90
5647;DHT22;2845;48.626;9.362;2023-04-25T12:26:23;8.90;99.90
5647;DHT22;2845;48.626;9.362;2023-04-25T12:31:34;8.80;99.90
5647;DHT22;2845;48.626;9.362;2023-04-25T12:34:08;8.90;99.90
5647;DHT22;2845;48.626;9.362;2023-04-25T12:36:42;8.90;99.90
5647;DHT22;2845;48.626;9.362;2023-04-25T12:39:17;11.20;99.90
5647;DHT22;2845;48.626;9.362;2023-04-25T12:41:53;9.10;99.90
5647;DHT22;2845;48.626;9.362;2023-04-25T12:47:03;9.30;99.90
5647;DHT22;2845;48.626;9.362;2023-04-25T12:49:38;11.50;99.90
5647;DHT22;2845;48.626;9.362;2023-04-25T12:52:12;9.40;99.90
5647;DHT22;2845;48.626;9.362;2023-04-25T12:54:46;9.40;99.90
5647;DHT22;2845;48.626;9.362;2023-04-25T12:57:20;9.30;99.90
5647;DHT22;2845;48.626;9.362;2023-04-25T12:59:56;9.40;99.90
5647;DHT22;2845;48.626;9.362;2023-04-25T13:02:30;11.90;99.90
5647;DHT22;2845;48.626;9.362;2023-04-25T13:05:05;12.40;99.90
5647;DHT22;2845;48.626;9.362;2023-04-25T13:07:40;10.10;99.90
5647;DHT22;2845;48.626;9.362;2023-04-25T13:10:14;12.70;99.90
5647;DHT22;2845;48.626;9.362;2023-04-25T13:12:48;11.40;99.90
5647;DHT22;2845;48.626;9.362;2023-04-25T13:15:24;12.50;99.90
5647;DHT22;2845;48.626;9.362;2023-04-25T13:17:58;11.00;99.90
5647;DHT22;2845;48.626;9.362;2023-04-25T13:20:32;14.10;99.90
5647;DHT22;2845;48.626;9.362;2023-04-25T13:23:06;13.00;99.90
5647;DHT22;2845;48.626;9.362;2023-04-25T13:25:41;11.20;99.90
5647;DHT22;2845;48.626;9.362;2023-04-25T13:28:15;11.40;99.90
5647;DHT22;2845;48.626;9.362;2023-04-25T13:33:25;11.40;99.20
5647;DHT22;2845;48.626;9.362;2023-04-25T13:36:01;11.30;99.60
5647;DHT22;2845;48.626;9.362;2023-04-25T13:38:35;11.30;99.90
5647;DHT22;2845;48.626;9.362;2023-04-25T13:41:09;9.70;99.70
5647;DHT22;2845;48.626;9.362;2023-04-25T13:43:46;11.30;99.90
5647;DHT22;2845;48.626;9.362;2023-04-25T13:46:23;12.80;99.90
5647;DHT22;2845;48.626;9.362;2023-04-25T13:49:17;8.50;99.20
5647;DHT22;2845;48.626;9.362;2023-04-25T13:51:51;13.10;99.90
5647;DHT22;2845;48.626;9.362;2023-04-25T13:54:25;11.80;99.40
5647;DHT22;2845;48.626;9.362;2023-04-25T13:56:59;14.40;99.00
5647;DHT22;2845;48.626;9.362;2023-04-25T13:59:34;15.40;99.00
5647;DHT22;2845;48.626;9.362;2023-04-25T14:02:10;12.00;97.60
5647;DHT22;2845;48.626;9.362;2023-04-25T14:04:44;14.90;98.60
5647;DHT22;2845;48.626;9.362;2023-04-25T14:07:18;12.10;97.30
5647;DHT22;2845;48.626;9.362;2023-04-25T14:09:53;12.20;97.60
5647;DHT22;2845;48.626;9.362;2023-04-25T14:12:29;12.50;97.50
5647;DHT22;2845;48.626;9.362;2023-04-25T14:15:04;12.80;96.40
5647;DHT22;2845;48.626;9.362;2023-04-25T14:20:14;13.10;95.90
5647;DHT22;2845;48.626;9.362;2023-04-25T14:22:53;13.10;96.40
5647;DHT22;2845;48.626;9.362;2023-04-25T14:25:29;13.60;96.10
5647;DHT22;2845;48.626;9.362;2023-04-25T14:28:04;15.70;96.10
5647;DHT22;2845;48.626;9.362;2023-04-25T14:30:38;12.80;96.20
5647;DHT22;2845;48.626;9.362;2023-04-25T14:33:14;12.70;96.00
5647;DHT22;2845;48.626;9.362;2023-04-25T14:35:48;12.60;96.10
5647;DHT22;2845;48.626;9.362;2023-04-25T14:38:22;15.00;96.70
5647;DHT22;2845;48.626;9.362;2023-04-25T14:40:58;12.60;96.30
5647;DHT22;2845;48.626;9.362;2023-04-25T14:43:32;13.30;96.20
5647;DHT22;2845;48.626;9.362;2023-04-25T14:46:06;12.80;95.50
5647;DHT22;2845;48.626;9.362;2023-04-25T14:48:42;12.60;95.10
5647;DHT22;2845;48.626;9.362;2023-04-25T14:51:16;14.60;96.30
5647;DHT22;2845;48.626;9.362;2023-04-25T14:53:50;14.30;96.10
5647;DHT22;2845;48.626;9.362;2023-04-25T14:56:25;13.60;96.50
5647;DHT22;2845;48.626;9.362;2023-04-25T14:58:59;14.30;96.70
5647;DHT22;2845;48.626;9.362;2023-04-25T15:01:33;13.30;96.80
5647;DHT22;2845;48.626;9.362;2023-04-25T15:04:09;12.10;96.50
5647;DHT22;2845;48.626;9.362;2023-04-25T15:06:45;12.20;96.70
5647;DHT22;2845;48.626;9.362;2023-04-25T15:09:19;12.30;96.80
5647;DHT22;2845;48.626;9.362;2023-04-25T15:11:53;13.30;96.70
5647;DHT22;2845;48.626;9.362;2023-04-25T15:14:27;13.20;96.20
5647;DHT22;2845;48.626;9.362;2023-04-25T15:17:01;13.50;96.20
5647;DHT22;2845;48.626;9.362;2023-04-25T15:19:37;14.60;96.50
5647;DHT22;2845;48.626;9.362;2023-04-25T15:22:11;12.80;96.10
5647;DHT22;2845;48.626;9.362;2023-04-25T15:24:45;15.70;96.20
5647;DHT22;2845;48.626;9.362;2023-04-25T15:27:20;13.30;95.10
5647;DHT22;2845;48.626;9.362;2023-04-25T15:29:54;17.20;95.60
5647;DHT22;2845;48.626;9.362;2023-04-25T15:32:28;13.60;94.50
5647;DHT22;2845;48.626;9.362;2023-04-25T15:35:06;13.50;94.40
5647;DHT22;2845;48.626;9.362;2023-04-25T15:37:40;13.50;94.60
5647;DHT22;2845;48.626;9.362;2023-04-25T15:40:15;13.40;94.70
5647;DHT22;2845;48.626;9.362;2023-04-25T15:42:51;15.40;95.40
5647;DHT22;2845;48.626;9.362;2023-04-25T15:45:25;13.10;95.10
5647;DHT22;2845;48.626;9.362;2023-04-25T15:48:01;13.10;94.90
5647;DHT22;2845;48.626;9.362;2023-04-25T15:50:36;13.20;94.80
5647;DHT22;2845;48.626;9.362;2023-04-25T15:53:11;13.20;94.50
5647;DHT22;2845;48.626;9.362;2023-04-25T15:55:45;13.20;94.60
5647;DHT22;2845;48.626;9.362;2023-04-25T15:58:19;13.10;94.40
5647;DHT22;2845;48.626;9.362;2023-04-25T16:00:54;12.90;94.40
5647;DHT22;2845;48.626;9.362;2023-04-25T16:03:28;12.70;94.40
5647;DHT22;2845;48.626;9.362;2023-04-25T16:06:09;12.50;94.90
5647;DHT22;2845;48.626;9.362;2023-04-25T16:08:43;14.40;95.60
5647;DHT22;2845;48.626;9.362;2023-04-25T16:11:17;15.00;95.70
5647;DHT22;2845;48.626;9.362;2023-04-25T16:13:51;15.30;95.90
5647;DHT22;2845;48.626;9.362;2023-04-25T16:16:25;14.20;95.80
5647;DHT22;2845;48.626;9.362;2023-04-25T16:19:00;12.70;94.90
5647;DHT22;2845;48.626;9.362;2023-04-25T16:21:35;14.80;95.40
5647;DHT22;2845;48.626;9.362;2023-04-25T16:24:11;12.70;94.70
5647;DHT22;2845;48.626;9.362;2023-04-25T16:26:45;12.60;95.10
5647;DHT22;2845;48.626;9.362;2023-04-25T16:29:19;12.50;95.00
5647;DHT22;2845;48.626;9.362;2023-04-25T16:34:29;15.50;95.90
5647;DHT22;2845;48.626;9.362;2023-04-25T16:37:05;12.40;95.30
5647;DHT22;2845;48.626;9.362;2023-04-25T16:39:39;12.30;95.30
5647;DHT22;2845;48.626;9.362;2023-04-25T16:42:13;14.70;95.80
5647;DHT22;2845;48.626;9.362;2023-04-25T16:44:47;12.20;95.50
5647;DHT22;2845;48.626;9.362;2023-04-25T16:47:21;14.40;95.90
5647;DHT22;2845;48.626;9.362;2023-04-25T16:49:59;12.00;95.50
5647;DHT22;2845;48.626;9.362;2023-04-25T16:52:35;11.90;95.60
5647;DHT22;2845;48.626;9.362;2023-04-25T16:55:09;11.80;95.50
5647;DHT22;2845;48.626;9.362;2023-04-25T16:57:43;11.80;95.60
5647;DHT22;2845;48.626;9.362;2023-04-25T17:00:18;11.60;94.70
5647;DHT22;2845;48.626;9.362;2023-04-25T17:02:53;11.40;94.20
5647;DHT22;2845;48.626;9.362;2023-04-25T17:05:28;11.30;94.80
5647;DHT22;2845;48.626;9.362;2023-04-25T17:08:04;11.00;94.80
5647;DHT22;2845;48.626;9.362;2023-04-25T17:10:38;11.10;95.00
5647;DHT22;2845;48.626;9.362;2023-04-25T17:13:13;12.70;96.00
5647;DHT22;2845;48.626;9.362;2023-04-25T17:18:23;10.80;95.60
5647;DHT22;2845;48.626;9.362;2023-04-25T17:20:59;10.70;95.70
5647;DHT22;2845;48.626;9.362;2023-04-25T17:23:36;10.60;96.30
5647;DHT22;2845;48.626;9.362;2023-04-25T17:28:50;10.50;95.90
5647;DHT22;2845;48.626;9.362;2023-04-25T17:31:25;10.50;96.80
5647;DHT22;2845;48.626;9.362;2023-04-25T17:33:59;10.40;97.50
5647;DHT22;2845;48.626;9.362;2023-04-25T17:36:34;10.40;98.00